createdAt,value
2018-12-06T00:00:11.413Z,67.20
2018-12-06T00:02:17.495Z,66.76
2018-12-06T00:04:23.575Z,66.76
2018-12-06T00:06:29.923Z,67.16
2018-12-06T00:08:36.088Z,67.36
2018-12-06T00:10:42.265Z,67.26
2018-12-06T00:12:48.388Z,66.64
2018-12-06T00:15:09.971Z,66.63
2018-12-06T00:17:16.125Z,67.07
2018-12-06T00:19:22.433Z,66.62
2018-12-06T00:21:28.739Z,67.01
2018-12-06T00:23:34.821Z,66.91
2018-12-06T00:25:41.029Z,67.00
2018-12-06T00:27:47.475Z,67.70
2018-12-06T00:30:10.248Z,67.10
2018-12-06T00:32:16.340Z,67.33
2018-12-06T00:34:22.579Z,67.27
2018-12-06T00:36:28.676Z,66.92
2018-12-06T00:38:34.888Z,67.37
2018-12-06T00:40:40.997Z,67.08
2018-12-06T00:42:48.494Z,67.35
2018-12-06T00:45:02.504Z,67.75
2018-12-06T00:47:08.792Z,67.77
2018-12-06T00:49:14.866Z,67.63
2018-12-06T00:51:21.024Z,67.55
2018-12-06T00:53:27.121Z,67.61
2018-12-06T00:55:33.249Z,67.47
2018-12-06T00:57:39.439Z,67.68
2018-12-06T00:59:45.626Z,67.68
2018-12-06T01:01:53.357Z,67.54
2018-12-06T01:03:59.568Z,67.59
2018-12-06T01:08:23.625Z,67.65
2018-12-06T01:10:29.725Z,67.94
2018-12-06T01:12:35.905Z,67.83
2018-12-06T01:14:42.125Z,67.45
2018-12-06T01:16:48.357Z,67.53
2018-12-06T01:18:54.793Z,68.04
2018-12-06T01:21:00.921Z,67.67
2018-12-06T01:23:07.053Z,68.34
2018-12-06T01:25:13.142Z,67.73
2018-12-06T01:27:41.365Z,67.70
2018-12-06T01:30:10.424Z,68.31
2018-12-06T01:32:16.593Z,68.10
2018-12-06T01:34:22.695Z,68.33
2018-12-06T01:36:29.484Z,68.05
2018-12-06T01:38:35.770Z,67.90
2018-12-06T01:40:41.836Z,67.63
2018-12-06T01:42:47.917Z,67.90
2018-12-06T01:44:54.072Z,67.74
2018-12-06T01:47:00.251Z,67.86
2018-12-06T01:49:06.385Z,67.57
2018-12-06T01:51:12.600Z,68.07
2018-12-06T01:53:18.669Z,68.18
2018-12-06T01:55:25.333Z,68.10
2018-12-06T01:57:31.591Z,67.88
2018-12-06T01:59:37.776Z,67.90
2018-12-06T02:01:44.433Z,68.17
2018-12-06T02:03:50.579Z,67.99
2018-12-06T02:05:56.757Z,67.90
2018-12-06T02:08:02.837Z,68.54
2018-12-06T02:10:09.904Z,68.09
2018-12-06T02:12:16.217Z,67.71
2018-12-06T02:14:22.283Z,68.11
2018-12-06T02:16:28.430Z,67.98
2018-12-06T02:18:34.695Z,67.95
2018-12-06T02:20:40.977Z,67.85
2018-12-06T02:22:47.319Z,67.65
2018-12-06T02:24:53.572Z,67.25
2018-12-06T02:26:59.778Z,67.72
2018-12-06T02:29:05.997Z,67.36
2018-12-06T02:31:12.048Z,67.36
2018-12-06T02:33:18.248Z,68.14
2018-12-06T02:35:24.336Z,67.65
2018-12-06T02:37:30.499Z,68.08
2018-12-06T02:39:36.831Z,67.70
2018-12-06T02:41:43.019Z,67.92
2018-12-06T02:43:49.178Z,67.81
2018-12-06T02:45:55.380Z,67.48
2018-12-06T02:48:01.615Z,68.27
2018-12-06T02:50:09.006Z,68.20
2018-12-06T02:52:15.313Z,68.30
2018-12-06T02:54:21.626Z,67.93
2018-12-06T02:56:27.767Z,68.26
2018-12-06T02:58:34.030Z,68.34
2018-12-06T03:00:40.174Z,68.46
2018-12-06T03:02:46.601Z,68.27
2018-12-06T03:04:52.751Z,68.41
2018-12-06T03:06:58.964Z,67.65
2018-12-06T03:09:06.520Z,67.89
2018-12-06T03:11:14.941Z,68.37
2018-12-06T03:13:21.154Z,68.07
2018-12-06T03:15:27.356Z,68.35
2018-12-06T03:17:33.431Z,67.77
2018-12-06T03:19:39.519Z,67.50
2018-12-06T03:24:03.391Z,67.97
2018-12-06T03:26:09.566Z,68.15
2018-12-06T03:28:15.799Z,68.14
2018-12-06T03:30:21.962Z,68.22
2018-12-06T03:32:28.153Z,68.35
2018-12-06T03:34:34.722Z,68.02
2018-12-06T03:36:40.838Z,67.72
2018-12-06T03:38:47.008Z,67.74
2018-12-06T03:40:53.404Z,68.35
2018-12-06T03:42:59.760Z,67.78
2018-12-06T03:45:06.420Z,67.73
2018-12-06T03:47:13.133Z,68.09
2018-12-06T03:49:19.255Z,68.18
2018-12-06T03:51:25.539Z,68.10
2018-12-06T03:53:32.195Z,68.19
2018-12-06T03:55:38.321Z,68.14
2018-12-06T03:57:44.535Z,67.75
2018-12-06T03:59:51.041Z,67.54
2018-12-06T04:01:57.211Z,68.16
2018-12-06T04:04:03.409Z,68.13
2018-12-06T04:06:09.631Z,67.95
2018-12-06T04:08:15.883Z,67.95
2018-12-06T04:10:22.193Z,68.08
2018-12-06T04:12:28.335Z,67.61
2018-12-06T04:14:34.439Z,67.97
2018-12-06T04:16:40.742Z,67.64
2018-12-06T04:18:47.037Z,67.78
2018-12-06T04:20:53.174Z,67.79
2018-12-06T04:22:59.398Z,67.91
2018-12-06T04:25:05.824Z,67.69
2018-12-06T04:27:11.952Z,67.97
2018-12-06T04:29:18.204Z,67.67
2018-12-06T04:31:24.580Z,67.97
2018-12-06T04:33:32.655Z,68.39
2018-12-06T04:35:39.946Z,67.73
2018-12-06T04:37:46.125Z,67.81
2018-12-06T04:39:52.283Z,67.77
2018-12-06T04:41:59.134Z,68.00
2018-12-06T04:44:05.472Z,68.33
2018-12-06T04:46:11.800Z,68.02
2018-12-06T04:48:21.942Z,67.58
2018-12-06T04:50:26.321Z,67.60
2018-12-06T04:52:32.606Z,68.09
2018-12-06T04:54:38.813Z,67.99
2018-12-06T04:56:44.878Z,68.21
2018-12-06T04:58:51.010Z,68.14
2018-12-06T05:00:57.069Z,68.03
2018-12-06T05:03:03.131Z,67.76
2018-12-06T05:07:26.781Z,68.04
2018-12-06T05:09:32.900Z,67.72
2018-12-06T05:11:38.992Z,67.69
2018-12-06T05:13:45.231Z,67.28
2018-12-06T05:15:51.350Z,67.97
2018-12-06T05:17:57.473Z,67.25
2018-12-06T05:20:03.754Z,67.33
2018-12-06T05:22:10.888Z,67.80
2018-12-06T05:24:16.986Z,67.84
2018-12-06T05:26:23.049Z,67.65
2018-12-06T05:28:29.874Z,67.84
2018-12-06T05:30:37.104Z,67.68
2018-12-06T05:32:43.743Z,67.91
2018-12-06T05:35:12.726Z,67.96
2018-12-06T05:37:42.196Z,67.24
2018-12-06T05:39:48.698Z,67.85
2018-12-06T05:41:54.885Z,67.44
2018-12-06T05:44:01.013Z,67.85
2018-12-06T05:46:07.385Z,67.71
2018-12-06T05:48:14.354Z,68.02
2018-12-06T05:50:21.028Z,67.54
2018-12-06T05:52:27.732Z,68.42
2018-12-06T05:54:33.826Z,67.88
2018-12-06T05:56:40.699Z,67.93
2018-12-06T05:58:47.594Z,67.95
2018-12-06T06:00:53.761Z,67.88
2018-12-06T06:03:00.188Z,67.74
2018-12-06T06:05:28.735Z,67.73
2018-12-06T06:07:58.122Z,67.37
2018-12-06T06:10:06.012Z,67.62
2018-12-06T06:12:12.193Z,67.69
2018-12-06T06:14:18.315Z,67.51
2018-12-06T06:16:24.551Z,68.08
2018-12-06T06:18:30.997Z,67.79
2018-12-06T06:20:37.202Z,67.99
2018-12-06T06:22:43.364Z,67.99
2018-12-06T06:24:50.331Z,67.97
2018-12-06T06:26:56.477Z,68.12
2018-12-06T06:29:02.914Z,67.86
2018-12-06T06:31:08.964Z,67.79
2018-12-06T06:33:15.181Z,68.23
2018-12-06T06:35:21.647Z,68.22
2018-12-06T06:37:27.733Z,68.18
2018-12-06T06:39:33.956Z,68.01
2018-12-06T06:41:40.160Z,67.99
2018-12-06T06:43:46.409Z,68.23
2018-12-06T06:45:52.574Z,68.29
2018-12-06T06:47:58.650Z,68.77
2018-12-06T06:50:05.274Z,68.71
2018-12-06T06:52:11.452Z,68.04
2018-12-06T06:54:17.553Z,68.55
2018-12-06T06:56:23.703Z,68.29
2018-12-06T06:58:29.788Z,67.97
2018-12-06T07:02:53.485Z,68.39
2018-12-06T07:07:16.570Z,68.30
2018-12-06T07:09:22.702Z,68.35
2018-12-06T07:11:29.379Z,68.09
2018-12-06T07:13:35.773Z,68.36
2018-12-06T07:15:41.896Z,68.72
2018-12-06T07:17:47.996Z,68.60
2018-12-06T07:19:54.237Z,68.71
2018-12-06T07:22:00.325Z,67.90
2018-12-06T07:24:06.554Z,68.89
2018-12-06T07:26:12.659Z,68.65
2018-12-06T07:28:18.738Z,68.33
2018-12-06T07:30:25.855Z,68.50
2018-12-06T07:32:33.743Z,69.17
2018-12-06T07:34:39.864Z,68.98
2018-12-06T07:36:47.341Z,68.38
2018-12-06T07:38:53.453Z,68.75
2018-12-06T07:40:59.506Z,69.19
2018-12-06T07:43:06.866Z,68.72
2018-12-06T07:45:13.247Z,68.97
2018-12-06T07:47:19.490Z,68.81
2018-12-06T07:49:25.913Z,68.86
2018-12-06T07:51:32.878Z,68.85
2018-12-06T07:53:38.997Z,69.14
2018-12-06T07:55:45.151Z,69.22
2018-12-06T07:57:52.007Z,69.62
2018-12-06T07:59:59.090Z,69.36
2018-12-06T08:02:05.399Z,68.94
2018-12-06T08:04:11.547Z,69.67
2018-12-06T08:06:18.758Z,69.44
2018-12-06T08:08:24.957Z,69.32
2018-12-06T08:10:31.218Z,69.95
2018-12-06T08:12:37.521Z,69.98
2018-12-06T08:14:43.760Z,70.24
2018-12-06T08:16:50.165Z,69.93
2018-12-06T08:18:56.468Z,70.39
2018-12-06T08:21:02.610Z,70.18
2018-12-06T08:23:08.985Z,69.41
2018-12-06T08:25:16.452Z,70.45
2018-12-06T08:27:22.938Z,70.25
2018-12-06T08:29:29.779Z,70.60
2018-12-06T08:31:36.885Z,70.38
2018-12-06T08:33:43.699Z,70.19
2018-12-06T08:35:50.377Z,70.60
2018-12-06T08:37:56.848Z,70.05
2018-12-06T08:40:02.984Z,70.33
2018-12-06T08:42:09.092Z,70.79
2018-12-06T08:44:21.332Z,70.38
2018-12-06T08:46:23.486Z,70.18
2018-12-06T08:48:29.939Z,70.71
2018-12-06T08:50:36.181Z,70.84
2018-12-06T08:52:42.285Z,70.19
2018-12-06T08:54:48.599Z,70.07
2018-12-06T08:56:54.707Z,70.05
2018-12-06T08:59:02.750Z,70.04
2018-12-06T09:01:09.159Z,70.30
2018-12-06T09:03:15.701Z,70.21
2018-12-06T09:05:21.882Z,70.29
2018-12-06T09:07:29.872Z,70.79
2018-12-06T09:09:36.330Z,70.19
2018-12-06T09:11:42.913Z,71.00
2018-12-06T09:13:49.715Z,70.74
2018-12-06T09:15:56.121Z,70.71
2018-12-06T09:18:02.317Z,70.51
2018-12-06T09:20:09.091Z,71.10
2018-12-06T09:22:15.238Z,70.92
2018-12-06T09:24:23.308Z,70.76
2018-12-06T09:26:29.502Z,70.75
2018-12-06T09:28:35.663Z,70.92
2018-12-06T09:30:41.951Z,70.39
2018-12-06T09:32:48.169Z,71.01
2018-12-06T09:34:54.449Z,70.68
2018-12-06T09:37:02.479Z,70.69
2018-12-06T09:41:28.289Z,70.37
2018-12-06T09:43:34.423Z,70.92
2018-12-06T09:45:40.476Z,70.42
2018-12-06T09:47:46.859Z,70.69
2018-12-06T09:49:53.056Z,70.62
2018-12-06T09:51:59.327Z,70.21
2018-12-06T09:54:05.647Z,70.40
2018-12-06T09:58:28.849Z,70.41
2018-12-06T10:00:35.251Z,70.06
2018-12-06T10:02:41.551Z,70.82
2018-12-06T10:04:48.056Z,70.68
2018-12-06T10:06:54.442Z,70.11
2018-12-06T10:09:01.422Z,70.73
2018-12-06T10:11:08.609Z,70.10
2018-12-06T10:13:14.721Z,70.91
2018-12-06T10:15:21.138Z,70.13
2018-12-06T10:17:27.235Z,70.65
2018-12-06T10:19:33.385Z,70.80
2018-12-06T10:21:39.688Z,70.55
2018-12-06T10:23:46.145Z,69.98
2018-12-06T10:25:52.342Z,70.22
2018-12-06T10:27:58.514Z,69.77
2018-12-06T10:30:07.206Z,70.76
2018-12-06T10:32:13.426Z,70.16
2018-12-06T10:34:19.983Z,70.40
2018-12-06T10:36:26.113Z,70.37
2018-12-06T10:38:32.249Z,70.64
2018-12-06T10:40:38.463Z,70.09
2018-12-06T10:42:44.631Z,70.44
2018-12-06T10:44:50.692Z,69.83
2018-12-06T10:47:00.550Z,69.82
2018-12-06T10:49:07.672Z,70.08
2018-12-06T10:51:30.649Z,70.41
2018-12-06T10:53:37.296Z,69.99
2018-12-06T10:55:45.147Z,69.92
2018-12-06T10:57:51.331Z,70.31
2018-12-06T10:59:57.425Z,69.94
2018-12-06T11:02:04.053Z,70.04
2018-12-06T11:04:10.223Z,70.23
2018-12-06T11:06:16.287Z,69.92
2018-12-06T11:08:22.493Z,70.31
2018-12-06T11:10:29.460Z,70.80
2018-12-06T11:12:36.442Z,70.76
2018-12-06T11:14:43.250Z,70.60
2018-12-06T11:16:49.920Z,70.32
2018-12-06T11:18:56.199Z,70.26
2018-12-06T11:21:02.334Z,70.35
2018-12-06T11:23:08.634Z,70.51
2018-12-06T11:25:15.575Z,70.80
2018-12-06T11:27:21.702Z,70.54
2018-12-06T11:29:27.853Z,70.85
2018-12-06T11:31:34.142Z,70.66
2018-12-06T11:33:40.522Z,70.80
2018-12-06T11:35:46.998Z,70.53
2018-12-06T11:37:53.067Z,70.78
2018-12-06T11:40:00.155Z,70.37
2018-12-06T11:42:06.222Z,70.51
2018-12-06T11:44:12.677Z,70.00
2018-12-06T11:46:19.021Z,70.12
2018-12-06T11:48:27.048Z,70.00
2018-12-06T11:50:33.489Z,70.12
2018-12-06T11:52:39.847Z,69.84
2018-12-06T11:54:46.340Z,69.84
2018-12-06T11:56:53.171Z,70.19
2018-12-06T11:59:02.247Z,69.89
2018-12-06T12:01:08.681Z,70.01
2018-12-06T12:03:16.694Z,70.14
2018-12-06T12:05:22.937Z,70.28
2018-12-06T12:07:29.144Z,69.76
2018-12-06T12:09:35.252Z,70.30
2018-12-06T12:11:49.222Z,69.96
2018-12-06T12:13:57.389Z,69.95
2018-12-06T12:16:03.618Z,70.33
2018-12-06T12:18:09.785Z,69.79
2018-12-06T12:20:17.353Z,70.27
2018-12-06T12:22:24.095Z,69.75
2018-12-06T12:24:30.457Z,70.02
2018-12-06T12:26:36.820Z,70.21
2018-12-06T12:28:43.455Z,70.21
2018-12-06T12:30:50.157Z,69.73
2018-12-06T12:32:56.497Z,69.51
2018-12-06T12:35:02.997Z,69.60
2018-12-06T12:37:09.358Z,70.01
2018-12-06T12:39:15.557Z,69.48
2018-12-06T12:41:22.144Z,69.82
2018-12-06T12:43:28.583Z,69.36
2018-12-06T12:45:35.809Z,69.42
2018-12-06T12:47:42.135Z,69.56
2018-12-06T12:49:48.278Z,69.71
2018-12-06T12:54:11.565Z,69.59
2018-12-06T12:56:18.388Z,69.79
2018-12-06T12:58:25.314Z,69.98
2018-12-06T13:00:31.903Z,69.84
2018-12-06T13:02:38.033Z,69.66
2018-12-06T13:04:44.854Z,70.08
2018-12-06T13:06:51.474Z,70.17
2018-12-06T13:08:57.686Z,70.31
2018-12-06T13:11:04.128Z,69.70
2018-12-06T13:13:18.145Z,69.49
2018-12-06T13:15:24.381Z,69.98
2018-12-06T13:17:30.921Z,69.83
2018-12-06T13:19:37.137Z,69.65
2018-12-06T13:21:43.661Z,69.78
2018-12-06T13:23:50.865Z,70.03
2018-12-06T13:25:57.216Z,69.61
2018-12-06T13:28:03.498Z,69.73
2018-12-06T13:30:10.998Z,69.12
2018-12-06T13:32:17.229Z,69.66
2018-12-06T13:34:23.447Z,69.69
2018-12-06T13:36:29.775Z,68.82
2018-12-06T13:38:36.173Z,69.74
2018-12-06T13:40:43.567Z,68.83
2018-12-06T13:42:49.820Z,69.76
2018-12-06T13:44:56.142Z,69.54
2018-12-06T13:47:02.288Z,69.54
2018-12-06T13:49:08.540Z,69.66
2018-12-06T13:51:14.734Z,69.45
2018-12-06T13:53:20.847Z,69.32
2018-12-06T13:55:26.989Z,68.63
2018-12-06T13:57:33.965Z,69.16
2018-12-06T13:59:41.156Z,69.17
2018-12-06T14:01:48.170Z,69.37
2018-12-06T14:03:54.417Z,68.51
2018-12-06T14:06:01.569Z,68.76
2018-12-06T14:08:08.134Z,69.17
2018-12-06T14:10:14.402Z,68.35
2018-12-06T14:12:20.471Z,69.02
2018-12-06T14:14:26.833Z,68.62
2018-12-06T14:16:33.393Z,69.09
2018-12-06T14:18:39.505Z,68.94
2018-12-06T14:20:45.723Z,68.78
2018-12-06T14:22:51.951Z,68.68
2018-12-06T14:24:58.110Z,68.87
2018-12-06T14:27:05.374Z,68.88
2018-12-06T14:29:12.210Z,68.24
2018-12-06T14:31:18.341Z,68.23
2018-12-06T14:33:25.234Z,68.05
2018-12-06T14:35:31.650Z,68.10
2018-12-06T14:37:39.005Z,69.00
2018-12-06T14:39:45.356Z,68.61
2018-12-06T14:41:52.914Z,68.75
2018-12-06T14:43:59.106Z,68.47
2018-12-06T14:46:05.409Z,67.91
2018-12-06T14:48:11.989Z,68.71
2018-12-06T14:50:18.664Z,68.01
2018-12-06T14:52:24.782Z,68.44
2018-12-06T14:54:32.418Z,67.75
2018-12-06T14:56:39.374Z,68.20
2018-12-06T14:58:46.302Z,68.09
2018-12-06T15:00:52.621Z,68.18
2018-12-06T15:02:59.470Z,68.48
2018-12-06T15:05:07.768Z,67.98
2018-12-06T15:07:14.167Z,68.17
2018-12-06T15:09:20.460Z,68.78
2018-12-06T15:11:28.017Z,68.79
2018-12-06T15:13:35.974Z,68.66
2018-12-06T15:15:50.686Z,68.55
2018-12-06T15:17:56.930Z,68.81
2018-12-06T15:20:03.158Z,68.50
2018-12-06T15:22:10.069Z,68.59
2018-12-06T15:24:16.251Z,68.36
2018-12-06T15:26:22.592Z,68.39
2018-12-06T15:28:28.716Z,68.80
2018-12-06T15:30:35.040Z,68.70
2018-12-06T15:32:41.737Z,68.82
2018-12-06T15:34:48.174Z,68.68
2018-12-06T15:36:54.462Z,68.43
2018-12-06T15:39:00.774Z,68.62
2018-12-06T15:41:07.051Z,68.67
2018-12-06T15:43:13.209Z,68.19
2018-12-06T15:45:19.407Z,68.01
2018-12-06T15:47:25.764Z,69.05
2018-12-06T15:49:32.621Z,68.61
2018-12-06T15:51:38.975Z,68.10
2018-12-06T15:53:45.070Z,68.72
2018-12-06T15:55:51.316Z,68.83
2018-12-06T15:57:59.309Z,68.22
2018-12-06T16:00:10.238Z,68.17
2018-12-06T16:02:16.479Z,67.84
2018-12-06T16:04:23.485Z,68.29
2018-12-06T16:06:30.192Z,68.02
2018-12-06T16:08:36.629Z,68.94
2018-12-06T16:10:44.015Z,68.12
2018-12-06T16:12:50.270Z,67.94
2018-12-06T16:14:56.476Z,68.20
2018-12-06T16:17:02.857Z,68.47
2018-12-06T16:19:08.961Z,67.94
2018-12-06T16:21:15.844Z,68.82
2018-12-06T16:23:22.228Z,68.56
2018-12-06T16:25:28.544Z,68.79
2018-12-06T16:27:34.875Z,68.07
2018-12-06T16:29:41.060Z,68.59
2018-12-06T16:31:47.386Z,68.80
2018-12-06T16:33:54.930Z,68.72
2018-12-06T16:36:01.102Z,68.89
2018-12-06T16:38:07.430Z,68.16
2018-12-06T16:40:14.305Z,68.34
2018-12-06T16:42:20.451Z,68.41
2018-12-06T16:44:26.552Z,68.56
2018-12-06T16:46:33.209Z,68.29
2018-12-06T16:48:40.473Z,68.84
2018-12-06T16:50:46.622Z,68.05
2018-12-06T16:52:53.068Z,68.16
2018-12-06T16:54:59.921Z,68.33
2018-12-06T16:57:07.050Z,68.18
2018-12-06T16:59:13.503Z,68.63
2018-12-06T17:01:19.700Z,68.68
2018-12-06T17:03:26.290Z,68.29
2018-12-06T17:05:32.460Z,68.37
2018-12-06T17:07:38.868Z,68.04
2018-12-06T17:09:45.120Z,68.74
2018-12-06T17:11:51.566Z,68.77
2018-12-06T17:13:57.854Z,68.14
2018-12-06T17:16:03.990Z,67.86
2018-12-06T17:18:18.331Z,67.84
2018-12-06T17:20:25.905Z,67.92
2018-12-06T17:22:32.031Z,68.07
2018-12-06T17:26:55.086Z,68.26
2018-12-06T17:29:01.313Z,68.73
2018-12-06T17:31:07.463Z,68.28
2018-12-06T17:33:13.693Z,68.50
2018-12-06T17:35:19.920Z,68.94
2018-12-06T17:37:26.099Z,68.92
2018-12-06T17:39:33.019Z,68.54
2018-12-06T17:41:39.499Z,68.43
2018-12-06T17:43:45.865Z,68.87
2018-12-06T17:45:52.344Z,68.54
2018-12-06T17:47:59.004Z,68.69
2018-12-06T17:50:06.216Z,68.99
2018-12-06T17:52:12.762Z,69.04
2018-12-06T17:54:18.967Z,69.43
2018-12-06T17:56:25.174Z,69.47
2018-12-06T17:58:32.566Z,68.74
2018-12-06T18:00:39.518Z,69.26
2018-12-06T18:02:45.620Z,68.64
2018-12-06T18:04:52.670Z,68.87
2018-12-06T18:06:58.874Z,68.89
2018-12-06T18:09:07.553Z,69.53
2018-12-06T18:11:15.407Z,68.84
2018-12-06T18:13:22.240Z,68.97
2018-12-06T18:15:29.300Z,69.59
2018-12-06T18:17:35.656Z,69.69
2018-12-06T18:19:42.230Z,68.93
2018-12-06T18:21:48.417Z,69.06
2018-12-06T18:23:54.786Z,69.59
2018-12-06T18:26:01.576Z,69.30
2018-12-06T18:28:07.786Z,69.31
2018-12-06T18:30:14.047Z,69.73
2018-12-06T18:32:20.876Z,69.84
2018-12-06T18:34:27.054Z,69.29
2018-12-06T18:36:33.571Z,69.39
2018-12-06T18:38:39.721Z,69.21
2018-12-06T18:40:46.042Z,69.64
2018-12-06T18:42:52.740Z,69.58
2018-12-06T18:44:59.035Z,69.86
2018-12-06T18:47:07.607Z,69.65
2018-12-06T18:49:14.199Z,69.26
2018-12-06T18:51:20.515Z,68.96
2018-12-06T18:53:27.000Z,69.19
2018-12-06T18:55:33.298Z,69.30
2018-12-06T18:57:40.494Z,69.16
2018-12-06T18:59:46.960Z,69.48
2018-12-06T19:01:53.433Z,69.37
2018-12-06T19:03:59.953Z,69.78
2018-12-06T19:06:06.271Z,69.19
2018-12-06T19:08:12.763Z,69.20
2018-12-06T19:10:19.380Z,68.98
2018-12-06T19:12:25.608Z,69.80
2018-12-06T19:14:33.081Z,69.85
2018-12-06T19:16:40.316Z,69.20
2018-12-06T19:18:46.756Z,69.56
2018-12-06T19:21:01.081Z,69.54
2018-12-06T19:23:07.510Z,69.59
2018-12-06T19:25:13.692Z,69.41
2018-12-06T19:27:20.170Z,69.15
2018-12-06T19:29:26.927Z,69.61
2018-12-06T19:31:34.226Z,69.86
2018-12-06T19:33:42.264Z,69.80
2018-12-06T19:35:52.534Z,69.00
2018-12-06T19:37:59.920Z,69.02
2018-12-06T19:40:07.479Z,69.90
2018-12-06T19:42:14.135Z,69.04
2018-12-06T19:44:22.661Z,69.02
2018-12-06T19:46:29.813Z,69.49
2018-12-06T19:48:35.960Z,69.78
2018-12-06T19:50:42.210Z,69.08
2018-12-06T19:52:48.864Z,69.08
2018-12-06T19:54:55.099Z,69.22
2018-12-06T19:57:01.454Z,68.83
2018-12-06T19:59:07.718Z,69.67
2018-12-06T20:01:14.282Z,68.88
2018-12-06T20:03:20.718Z,68.84
2018-12-06T20:05:26.982Z,69.11
2018-12-06T20:07:33.485Z,68.81
2018-12-06T20:09:40.972Z,68.93
2018-12-06T20:11:47.273Z,68.93
2018-12-06T20:13:54.366Z,68.93
2018-12-06T20:16:00.613Z,69.17
2018-12-06T20:18:06.951Z,69.11
2018-12-06T20:20:13.482Z,68.92
2018-12-06T20:22:27.344Z,68.53
2018-12-06T20:24:34.686Z,68.60
2018-12-06T20:26:41.925Z,68.58
2018-12-06T20:28:50.178Z,68.42
2018-12-06T20:30:56.482Z,68.45
2018-12-06T20:33:03.046Z,68.39
2018-12-06T20:35:11.068Z,69.01
2018-12-06T20:37:19.400Z,68.39
2018-12-06T20:39:26.378Z,68.31
2018-12-06T20:41:32.818Z,68.91
2018-12-06T20:43:39.244Z,68.83
2018-12-06T20:45:46.013Z,68.61
2018-12-06T20:47:52.502Z,69.02
2018-12-06T20:49:59.147Z,68.82
2018-12-06T20:52:06.156Z,68.16
2018-12-06T20:54:12.359Z,68.98
2018-12-06T20:56:18.867Z,68.76
2018-12-06T20:58:25.083Z,68.15
2018-12-06T21:00:32.949Z,68.40
2018-12-06T21:02:39.503Z,68.33
2018-12-06T21:04:45.818Z,68.25
2018-12-06T21:06:52.137Z,68.55
2018-12-06T21:08:58.359Z,68.33
2018-12-06T21:13:21.325Z,68.24
2018-12-06T21:15:27.601Z,68.46
2018-12-06T21:17:33.914Z,68.57
2018-12-06T21:19:40.154Z,68.41
2018-12-06T21:21:46.406Z,68.65
2018-12-06T21:23:53.023Z,69.03
2018-12-06T21:25:59.248Z,68.48
2018-12-06T21:28:05.549Z,68.14
2018-12-06T21:30:11.834Z,68.81
2018-12-06T21:32:18.809Z,68.69
2018-12-06T21:34:26.050Z,68.63
2018-12-06T21:36:32.295Z,68.50
2018-12-06T21:38:38.420Z,68.41
2018-12-06T21:40:44.717Z,68.69
2018-12-06T21:42:51.443Z,68.46
2018-12-06T21:44:57.606Z,68.91
2018-12-06T21:47:03.807Z,68.83
2018-12-06T21:49:10.781Z,69.05
2018-12-06T21:53:35.098Z,68.54
2018-12-06T21:55:41.313Z,68.61
2018-12-06T21:57:47.549Z,68.55
2018-12-06T21:59:53.693Z,68.84
2018-12-06T22:02:16.594Z,68.66
2018-12-06T22:04:24.710Z,68.95
2018-12-06T22:06:32.906Z,68.98
2018-12-06T22:08:39.989Z,68.85
2018-12-06T22:10:46.221Z,68.65
2018-12-06T22:12:52.465Z,68.42
2018-12-06T22:14:58.827Z,68.98
2018-12-06T22:17:05.180Z,68.72
2018-12-06T22:19:11.569Z,68.97
2018-12-06T22:21:17.625Z,68.22
2018-12-06T22:23:24.225Z,68.05
2018-12-06T22:25:38.110Z,68.21
2018-12-06T22:27:44.353Z,68.23
2018-12-06T22:29:50.593Z,67.97
2018-12-06T22:31:56.707Z,68.83
2018-12-06T22:34:02.841Z,67.92
2018-12-06T22:36:09.106Z,68.61
2018-12-06T22:38:15.172Z,68.39
2018-12-06T22:40:21.686Z,68.41
2018-12-06T22:42:27.844Z,67.77
2018-12-06T22:44:34.247Z,68.15
2018-12-06T22:46:40.532Z,67.92
2018-12-06T22:48:46.874Z,68.16
2018-12-06T22:50:53.711Z,68.49
2018-12-06T22:52:59.868Z,68.20
2018-12-06T22:55:06.369Z,67.86
2018-12-06T22:57:12.815Z,68.33
2018-12-06T22:59:19.702Z,67.97
2018-12-06T23:01:31.126Z,68.08
2018-12-06T23:03:37.258Z,67.58
2018-12-06T23:05:43.407Z,67.98
2018-12-06T23:07:49.901Z,68.51
2018-12-06T23:09:56.052Z,68.05
2018-12-06T23:12:02.187Z,68.72
2018-12-06T23:14:09.007Z,68.34
2018-12-06T23:16:15.423Z,68.43
2018-12-06T23:18:22.038Z,68.04
2018-12-06T23:20:28.263Z,68.15
2018-12-06T23:24:51.601Z,68.02
2018-12-06T23:27:10.587Z,68.74
2018-12-06T23:29:17.103Z,67.99
2018-12-06T23:31:23.394Z,68.81
2018-12-06T23:33:32.184Z,68.21
2018-12-06T23:35:38.774Z,68.32
2018-12-06T23:37:45.768Z,68.01
2018-12-06T23:39:52.123Z,68.77
2018-12-06T23:41:58.294Z,68.55
2018-12-06T23:44:04.488Z,68.08
2018-12-06T23:46:10.950Z,68.01
2018-12-06T23:48:17.118Z,68.54
2018-12-06T23:50:23.595Z,68.02
2018-12-06T23:52:30.395Z,67.94
2018-12-06T23:54:37.459Z,68.73
2018-12-06T23:56:43.599Z,68.48
